createdAt,value
2023-06-10T00:00:07.097Z,72.90
2023-06-10T00:03:01.078Z,73.05
2023-06-10T00:05:32.835Z,73.36
2023-06-10T00:08:01.052Z,72.96
2023-06-10T00:10:29.268Z,73.07
2023-06-10T00:12:57.901Z,73.30
2023-06-10T00:15:26.112Z,73.12
2023-06-10T00:17:54.445Z,72.93
2023-06-10T00:20:25.058Z,72.20
2023-06-10T00:22:53.491Z,71.99
2023-06-10T00:25:21.701Z,71.82
2023-06-10T00:27:50.044Z,71.59
2023-06-10T00:30:18.345Z,71.58
2023-06-10T00:32:46.600Z,71.47
2023-06-10T00:35:14.998Z,71.50
2023-06-10T00:37:43.410Z,72.06
2023-06-10T00:40:12.124Z,72.20
2023-06-10T00:42:40.346Z,71.99
2023-06-10T00:45:09.513Z,72.43
2023-06-10T00:47:38.893Z,72.78
2023-06-10T00:50:08.319Z,73.24
2023-06-10T00:52:37.152Z,73.63
2023-06-10T00:55:06.206Z,73.44
2023-06-10T00:57:35.593Z,73.62
2023-06-10T01:00:08.727Z,73.23
2023-06-10T01:02:37.428Z,73.44
2023-06-10T01:05:06.866Z,73.83
2023-06-10T01:07:44.326Z,74.50
2023-06-10T01:10:45.264Z,74.75
2023-06-10T01:13:14.999Z,74.31
2023-06-10T01:15:44.119Z,73.96
2023-06-10T01:18:18.007Z,73.89
2023-06-10T01:20:47.800Z,73.59
2023-06-10T01:23:16.861Z,73.11
2023-06-10T01:25:53.146Z,72.49
2023-06-10T01:28:32.807Z,72.62
2023-06-10T01:31:26.436Z,72.96
2023-06-10T01:33:55.237Z,73.17
2023-06-10T01:36:26.280Z,73.87
2023-06-10T01:38:55.594Z,74.20
2023-06-10T01:41:25.023Z,74.81
2023-06-10T01:43:53.342Z,74.89
2023-06-10T01:46:22.611Z,74.69
2023-06-10T01:48:50.987Z,73.68
2023-06-10T01:51:19.212Z,72.64
2023-06-10T01:53:47.328Z,72.23
2023-06-10T01:56:20.666Z,71.98
2023-06-10T01:58:48.683Z,72.35
2023-06-10T02:01:16.974Z,72.50
2023-06-10T02:03:45.295Z,73.09
2023-06-10T02:06:13.452Z,73.15
2023-06-10T02:08:41.665Z,72.66
2023-06-10T02:11:10.094Z,71.78
2023-06-10T02:13:40.038Z,71.20
2023-06-10T02:16:08.661Z,70.71
2023-06-10T02:18:36.859Z,70.49
2023-06-10T02:21:04.972Z,69.89
2023-06-10T02:23:33.340Z,69.74
2023-06-10T02:26:01.916Z,69.67
2023-06-10T02:28:30.335Z,69.52
2023-06-10T02:31:00.482Z,69.21
2023-06-10T02:33:29.085Z,68.77
2023-06-10T02:35:57.717Z,68.72
2023-06-10T02:38:26.337Z,68.33
2023-06-10T02:40:56.059Z,68.41
2023-06-10T02:43:24.478Z,68.33
2023-06-10T02:45:53.460Z,68.21
2023-06-10T02:48:21.826Z,68.16
2023-06-10T02:50:50.141Z,68.94
2023-06-10T02:53:26.393Z,68.88
2023-06-10T02:55:57.824Z,68.41
2023-06-10T02:58:27.651Z,67.98
2023-06-10T03:00:56.797Z,67.70
2023-06-10T03:03:25.520Z,67.42
2023-06-10T03:06:02.559Z,67.48
2023-06-10T03:08:31.976Z,67.30
2023-06-10T03:11:01.611Z,67.00
2023-06-10T03:13:30.023Z,66.87
2023-06-10T03:15:58.417Z,67.29
2023-06-10T03:18:28.479Z,67.33
2023-06-10T03:20:57.583Z,67.10
2023-06-10T03:23:28.721Z,66.86
2023-06-10T03:25:56.941Z,66.70
2023-06-10T03:28:25.360Z,66.83
2023-06-10T03:30:53.483Z,66.95
2023-06-10T03:33:23.414Z,67.08
2023-06-10T03:35:52.328Z,66.71
2023-06-10T03:38:20.859Z,67.03
2023-06-10T03:40:49.672Z,67.04
2023-06-10T03:43:17.898Z,66.97
2023-06-10T03:45:46.555Z,67.18
2023-06-10T03:48:15.239Z,67.29
2023-06-10T03:50:48.902Z,67.43
2023-06-10T03:53:17.692Z,67.17
2023-06-10T03:55:46.927Z,66.98
2023-06-10T03:58:16.449Z,66.72
2023-06-10T04:00:46.681Z,66.56
2023-06-10T04:03:18.473Z,66.59
2023-06-10T04:05:49.281Z,66.45
2023-06-10T04:08:17.476Z,66.54
2023-06-10T04:10:45.684Z,66.57
2023-06-10T04:13:13.897Z,66.65
2023-06-10T04:15:47.845Z,66.73
2023-06-10T04:18:18.272Z,66.84
2023-06-10T04:20:47.396Z,66.65
2023-06-10T04:23:15.721Z,66.49
2023-06-10T04:25:45.533Z,66.25
2023-06-10T04:28:14.067Z,66.07
2023-06-10T04:30:43.080Z,65.49
2023-06-10T04:33:11.448Z,65.33
2023-06-10T04:35:40.630Z,64.85
2023-06-10T04:38:09.666Z,64.75
2023-06-10T04:40:38.269Z,64.51
2023-06-10T04:43:06.796Z,64.43
2023-06-10T04:45:35.321Z,63.82
2023-06-10T04:48:04.591Z,63.67
2023-06-10T04:50:34.367Z,63.12
2023-06-10T04:53:02.588Z,62.90
2023-06-10T04:55:31.213Z,61.91
2023-06-10T04:57:59.330Z,62.10
2023-06-10T05:00:27.649Z,61.56
2023-06-10T05:02:57.490Z,59.81
2023-06-10T05:05:26.198Z,59.97
2023-06-10T05:07:54.540Z,59.27
2023-06-10T05:10:22.734Z,58.87
2023-06-10T05:12:50.868Z,59.09
2023-06-10T05:15:19.080Z,58.69
2023-06-10T05:17:47.227Z,58.56
2023-06-10T05:20:16.416Z,58.56
2023-06-10T05:22:44.541Z,58.59
2023-06-10T05:25:12.870Z,58.60
2023-06-10T05:27:43.515Z,57.47
2023-06-10T05:30:12.611Z,57.94
2023-06-10T05:32:41.178Z,57.70
2023-06-10T05:35:10.013Z,57.64
2023-06-10T05:37:38.479Z,56.99
2023-06-10T05:40:07.604Z,55.08
2023-06-10T05:42:35.919Z,53.53
2023-06-10T05:45:04.753Z,54.08
2023-06-10T05:47:33.158Z,53.92
2023-06-10T05:50:01.397Z,53.69
2023-06-10T05:52:29.505Z,52.33
2023-06-10T05:54:57.634Z,50.49
2023-06-10T05:57:25.844Z,50.64
2023-06-10T05:59:53.869Z,49.80
2023-06-10T06:02:22.050Z,48.73
2023-06-10T06:04:50.466Z,48.55
2023-06-10T06:07:21.836Z,48.32
2023-06-10T06:09:50.259Z,47.66
2023-06-10T06:12:18.383Z,45.94
2023-06-10T06:14:46.502Z,45.24
2023-06-10T06:17:14.819Z,44.44
2023-06-10T06:19:43.254Z,43.74
2023-06-10T06:22:11.358Z,44.39
2023-06-10T06:24:39.453Z,45.47
2023-06-10T06:27:07.800Z,45.21
2023-06-10T06:29:35.817Z,44.74
2023-06-10T06:32:04.841Z,44.13
2023-06-10T06:34:33.173Z,43.79
2023-06-10T06:37:01.387Z,42.93
